首页
METAR-TAF:

METAR-TAF

机场 :

甘露機場

坎卢普斯, 不列颠哥伦比亚, 加拿大

纬度: 50-42N, 经度: 120-27W, 海拔: 345米

当前天气观测

该预报发布于1小时和1分钟前的13:00 UTC
风速2节,风向东转东南
温度 1°C
湿度 59%
气压 1025 hPa
能見度: 64.4公里
天空无云

METAR: CYKA 151300Z 12002KT 40SM SKC 01/M06 A3027 RMK SLP259

时间: 07:01 (14:01 UTC)

预报

该预报发布于1小时和23分钟前的12:38 UTC
预报有效从15日的 13点(UTC)到 16日的 01点(UTC)
风速3节,风向多变
能見度: 10公里
天空无云
成为
从 15日的 21点(UTC)到 15日的 23点(UTC)
风速8节,风向

TAF: CYKA 151238Z 1513/1601 VRB03KT P6SM SKC BECMG 1521/1523 09008KT RMK NXT FCST BY 151900Z

超过4000个机场的气象观测和天气预报(METAR&TAF报告)。

可查询的气象台以黄色和红色小点在地图上表示。

将鼠标移到小点上方,可查看气象台名称。

然后点击查看天气观测和预报。

如需切换地图:点击带黑十字的绿色按钮放大地图;点击带横线的绿色按钮缩小地图;或者点击绿色箭头查看邻近地区的地图。


METAR-TAF: